Bad Axe, MI

2:35 PM EDT on April 23, 2017 (GMT -0400)
Huron County Memorial

Weather History for KBAX - January, 2013

Change the Weather History Date:

Thursday, January 10, 2013

  Actual Average (KP58) Record (KP58)
Temperature  
Mean Temperature 28 °F -  
Max Temperature 38 °F 29 °F 44 °F (2017)
Min Temperature 19 °F 19 °F 1 °F (2015)
Degree Days  
Heating Degree Days 36    
Moisture  
Dew Point 26 °F    
Average Humidity 82    
Maximum Humidity 94    
Minimum Humidity 66    
Precipitation  
Precipitation 0.00 in - - ()
Sea Level Pressure  
Sea Level Pressure 30.45 in    
Wind  
Wind Speed 4 mph (SSE)    
Max Wind Speed 12 mph    
Max Gust Speed 17 mph    
Visibility 10 miles    
Events      
Averages and records for this station are not official NWS values.
T = Trace of Precipitation, MM = Missing Value Source: NWS Daily Summary

Daily Weather History Graph

Daily Weather History Graph

Search for Another Location

Airport or City:

Trip Planner

Search our weather history database for the weather conditions in past years. The results will help you decide how hot, cold, wet, or windy it might be!

Date:

Astronomy

Jan. 10, 2013 Rise Set
Actual Time 8:04 AM EST 5:14 PM EST
Civil Twilight 7:32 AM EST 5:47 PM EST
Nautical Twilight 6:56 AM EST 6:22 PM EST
Astronomical Twilight 6:22 AM EST 6:57 PM EST
Moon 6:43 AM EST (1/10) 4:21 PM EST (1/10)
Length of Visible Light 10h 14m
Length of Day
9h 10m
Waning Crescent, 2% of the Moon is Illuminated
Jan 10
Waning Crescent
Jan 11
New
Jan 18
First Quarter
Jan 26
Full
Feb 3
Last Quarter

Hourly Weather History & Observations

Time (EST) Temp. Windchill Dew Point Humidity Pressure Visibility Wind Dir Wind Speed Gust Speed Precip Events Conditions
12:14 AM 32.0 °F 25.6 °F 25.3 °F 76% 30.40 in 10.0 mi West 6.9 mph - N/A   Clear
12:34 AM 31.5 °F 28.1 °F 25.0 °F 77% 30.40 in 10.0 mi WNW 3.5 mph - N/A   Clear
12:54 AM 30.2 °F 26.7 °F 24.1 °F 78% 30.40 in 10.0 mi NNW 3.5 mph - N/A   Clear
1:14 AM 28.4 °F - 23.2 °F 81% 30.40 in 10.0 mi Calm Calm - N/A   Clear
1:34 AM 25.3 °F - 21.4 °F 85% 30.41 in 10.0 mi Calm Calm - N/A   Clear
1:54 AM 27.1 °F 23.2 °F 24.1 °F 88% 30.43 in 10.0 mi SSW 3.5 mph - N/A   Clear
2:14 AM 26.6 °F - 23.5 °F 88% 30.45 in 10.0 mi Calm Calm - N/A   Clear
2:34 AM 23.7 °F 19.3 °F 21.2 °F 90% 30.47 in 10.0 mi South 3.5 mph - N/A   Clear
2:54 AM 24.8 °F 20.5 °F 22.5 °F 91% 30.49 in 10.0 mi SSW 3.5 mph - N/A   Clear
3:14 AM 28.4 °F 21.2 °F 25.9 °F 90% 30.51 in 10.0 mi SW 6.9 mph - N/A   Clear
3:34 AM 27.7 °F 22.4 °F 24.3 °F 87% 30.51 in 10.0 mi SW 4.6 mph - N/A   Clear
3:54 AM 27.5 °F 23.6 °F 24.6 °F 89% 30.51 in 10.0 mi SW 3.5 mph - N/A   Clear
4:14 AM 27.5 °F - 24.4 °F 88% 30.51 in 10.0 mi Calm Calm - N/A   Clear
4:34 AM 27.1 °F - 23.9 °F 88% 30.50 in 10.0 mi Calm Calm - N/A   Clear
4:54 AM 25.9 °F - 22.5 °F 87% 30.51 in 10.0 mi Calm Calm - N/A   Clear
5:14 AM 26.4 °F - 23.7 °F 90% 30.51 in 10.0 mi Calm Calm - N/A   Clear
5:34 AM 26.2 °F - 23.2 °F 88% 30.50 in 10.0 mi Calm Calm - N/A   Clear
5:54 AM 24.3 °F - 21.4 °F 89% 30.51 in 10.0 mi Calm Calm - N/A   Clear
6:14 AM 23.0 °F - 20.8 °F 91% 30.51 in 10.0 mi Calm Calm - N/A   Clear
6:34 AM 20.7 °F - 18.7 °F 92% 30.52 in 10.0 mi Calm Calm - N/A   Clear
6:54 AM 20.8 °F - 18.7 °F 91% 30.53 in 10.0 mi Calm Calm - N/A   Clear
7:14 AM 20.3 °F - 18.5 °F 93% 30.53 in 10.0 mi Calm Calm - N/A   Clear
7:34 AM 19.2 °F - 17.4 °F 93% 30.55 in 10.0 mi Calm Calm - N/A   Clear
7:54 AM 19.4 °F - 17.6 °F 93% 30.55 in 10.0 mi Calm Calm - N/A   Clear
8:14 AM 20.3 °F - 18.9 °F 94% 30.55 in 10.0 mi Calm Calm - N/A   Clear
8:54 AM 19.9 °F - 18.5 °F 94% 30.56 in 10.0 mi Calm Calm - N/A   Clear
9:14 AM 22.5 °F - 21.0 °F 94% 30.55 in 10.0 mi Calm Calm - N/A   Clear
9:34 AM 24.1 °F 19.7 °F 22.5 °F 94% 30.56 in 10.0 mi SSE 3.5 mph - N/A   Clear
9:55 AM 29.3 °F - 27.3 °F 92% 30.55 in 10.0 mi Calm Calm - N/A   Clear
10:14 AM 31.6 °F 28.3 °F 28.4 °F 88% 30.56 in 10.0 mi South 3.5 mph - N/A   Clear
10:34 AM 32.2 °F - 27.5 °F 83% 30.56 in 10.0 mi Calm Calm - N/A   Clear
10:55 AM 32.9 °F 29.8 °F 27.5 °F 81% 30.56 in 10.0 mi South 3.5 mph - N/A   Clear
11:14 AM 33.8 °F 29.6 °F 27.9 °F 79% 30.56 in 10.0 mi South 4.6 mph - N/A   Clear
11:34 AM 34.5 °F 31.6 °F 27.9 °F 77% 30.55 in 10.0 mi South 3.5 mph - N/A   Clear
11:55 AM 35.8 °F - 27.5 °F 72% 30.54 in 10.0 mi Calm Calm - N/A   Clear
12:14 PM 35.8 °F - 27.5 °F 72% 30.52 in 10.0 mi Calm Calm - N/A   Clear
12:34 PM 37.4 °F 32.8 °F 28.2 °F 69% 30.51 in 10.0 mi SSE 5.8 mph - N/A   Clear
12:54 PM 37.8 °F 34.2 °F 28.4 °F 69% 30.50 in 10.0 mi SSE 4.6 mph - N/A   Clear
1:14 PM 38.3 °F 30.9 °F 27.9 °F 66% 30.49 in 10.0 mi South 11.5 mph - N/A   Clear
1:35 PM 38.1 °F 30.7 °F 27.5 °F 66% 30.49 in 10.0 mi South 11.5 mph - N/A   Clear
1:54 PM 38.3 °F 31.4 °F 28.0 °F 67% 30.48 in 10.0 mi South 10.4 mph - N/A   Clear
2:14 PM 38.3 °F 33.2 °F 28.0 °F 67% 30.47 in 10.0 mi SSE 6.9 mph - N/A   Clear
2:35 PM 38.5 °F 33.4 °F 27.9 °F 66% 30.45 in 10.0 mi SSE 6.9 mph - N/A   Clear
2:54 PM 38.3 °F 33.2 °F 28.4 °F 68% 30.45 in 10.0 mi South 6.9 mph - N/A   Clear
3:14 PM 37.6 °F 33.1 °F 29.1 °F 72% 30.44 in 10.0 mi South 5.8 mph - N/A   Clear
3:35 PM 38.1 °F 33.7 °F 27.5 °F 66% 30.44 in 10.0 mi SSE 5.8 mph - N/A   Clear
3:54 PM 37.6 °F 35.1 °F 28.0 °F 68% 30.43 in 10.0 mi ESE 3.5 mph - N/A   Clear
4:14 PM 36.5 °F 32.7 °F 28.6 °F 73% 30.43 in 10.0 mi ESE 4.6 mph - N/A   Clear
4:35 PM 35.8 °F 31.9 °F 28.9 °F 76% 30.42 in 10.0 mi ESE 4.6 mph - N/A   Clear
4:54 PM 35.2 °F 30.3 °F 29.3 °F 79% 30.42 in 10.0 mi SE 5.8 mph - N/A   Clear
5:14 PM 34.9 °F 30.8 °F 29.1 °F 79% 30.42 in 10.0 mi SE 4.6 mph - N/A   Clear
5:35 PM 34.2 °F 30.0 °F 29.3 °F 82% 30.41 in 10.0 mi SE 4.6 mph - N/A   Clear
5:54 PM 34.0 °F 31.0 °F 29.3 °F 83% 30.41 in 10.0 mi SE 3.5 mph - N/A   Clear
6:14 PM 34.0 °F 29.8 °F 29.5 °F 84% 30.40 in 10.0 mi SE 4.6 mph - N/A   Clear
6:35 PM 34.2 °F 29.0 °F 29.3 °F 82% 30.39 in 10.0 mi SE 5.8 mph - N/A   Clear
6:54 PM 34.3 °F 29.2 °F 28.9 °F 81% 30.39 in 10.0 mi SE 5.8 mph - N/A   Clear
7:14 PM 34.5 °F 28.6 °F 28.8 °F 79% 30.38 in 10.0 mi SE 6.9 mph - N/A   Clear
7:34 PM 34.7 °F 28.1 °F 28.8 °F 79% 30.38 in 10.0 mi SE 8.1 mph - N/A   Clear
7:54 PM 34.7 °F 29.6 °F 28.9 °F 79% 30.37 in 10.0 mi SE 5.8 mph - N/A   Clear
8:15 PM 34.3 °F 27.0 °F 29.7 °F 83% 30.35 in 10.0 mi SE 9.2 mph - N/A   Clear
8:34 PM 34.7 °F 28.1 °F 29.8 °F 82% 30.34 in 10.0 mi SE 8.1 mph - N/A   Clear
8:55 PM 34.3 °F 27.0 °F 29.8 °F 84% 30.33 in 10.0 mi SE 9.2 mph - N/A   Clear
9:14 PM 34.3 °F 27.7 °F 30.0 °F 84% 30.32 in 10.0 mi SE 8.1 mph - N/A   Clear
9:34 PM 34.7 °F 27.5 °F 30.0 °F 83% 30.31 in 10.0 mi SE 9.2 mph - N/A   Clear
9:55 PM 34.7 °F 26.4 °F 29.5 °F 81% 30.30 in 10.0 mi SE 11.5 mph 17.3 mph N/A   Clear
10:14 PM 34.7 °F 28.1 °F 29.3 °F 81% 30.29 in 10.0 mi SE 8.1 mph - N/A   Clear
10:35 PM 34.9 °F 27.7 °F 29.3 °F 80% 30.26 in 10.0 mi ESE 9.2 mph 16.1 mph N/A   Clear
10:54 PM 34.9 °F 27.7 °F 29.7 °F 81% 30.24 in 10.0 mi SE 9.2 mph 17.3 mph N/A   Clear
11:14 PM 35.1 °F 27.9 °F 29.7 °F 81% 30.24 in 10.0 mi SE 9.2 mph - N/A   Clear
11:34 PM 35.4 °F 29.7 °F 29.8 °F 80% 30.22 in 10.0 mi SE 6.9 mph 17.3 mph N/A   Mostly Cloudy